createdAt,value
2023-02-22T00:01:35.371Z,22.45
2023-02-22T00:04:04.615Z,17.02
2023-02-22T00:06:31.379Z,17.35
2023-02-22T00:08:58.895Z,17.10
2023-02-22T00:11:25.961Z,18.92
2023-02-22T00:13:57.017Z,19.00
2023-02-22T00:16:24.963Z,20.55
2023-02-22T00:18:52.357Z,22.05
2023-02-22T00:21:19.621Z,16.42
2023-02-22T00:23:47.925Z,17.05
2023-02-22T00:26:20.276Z,14.82
2023-02-22T00:28:49.391Z,18.83
2023-02-22T00:31:16.671Z,22.23
2023-02-22T00:33:43.701Z,16.88
2023-02-22T00:36:12.510Z,16.80
2023-02-22T00:38:40.178Z,17.58
2023-02-22T00:41:07.291Z,15.57
2023-02-22T00:43:34.308Z,21.25
2023-02-22T00:46:01.094Z,19.35
2023-02-22T00:48:28.469Z,19.33
2023-02-22T00:50:58.049Z,28.55
2023-02-22T00:53:26.143Z,24.52
2023-02-22T00:55:53.871Z,28.17
2023-02-22T00:58:21.703Z,26.08
2023-02-22T01:00:49.530Z,27.60
2023-02-22T01:03:20.620Z,25.98
2023-02-22T01:05:47.799Z,22.58
2023-02-22T01:08:16.680Z,18.65
2023-02-22T01:10:43.954Z,17.33
2023-02-22T01:13:12.828Z,20.08
2023-02-22T01:15:43.178Z,18.52
2023-02-22T01:18:12.553Z,23.95
2023-02-22T01:20:39.507Z,24.58
2023-02-22T01:23:07.801Z,19.90
2023-02-22T01:25:35.682Z,20.77
2023-02-22T01:28:05.117Z,20.58
2023-02-22T01:30:34.902Z,18.73
2023-02-22T01:33:03.694Z,20.00
2023-02-22T01:35:34.140Z,15.63
2023-02-22T01:38:00.915Z,18.40
2023-02-22T01:40:29.670Z,15.68
2023-02-22T01:42:59.807Z,19.42
2023-02-22T01:45:35.244Z,13.15
2023-02-22T01:48:08.669Z,14.73
2023-02-22T01:50:42.506Z,16.58
2023-02-22T01:53:13.388Z,16.77
2023-02-22T01:55:40.517Z,16.75
2023-02-22T01:58:08.839Z,16.48
2023-02-22T02:00:36.231Z,19.85
2023-02-22T02:03:09.657Z,20.60
2023-02-22T02:05:37.357Z,18.58
2023-02-22T02:08:39.338Z,17.75
2023-02-22T02:11:09.158Z,17.93
2023-02-22T02:13:36.860Z,18.85
2023-02-22T02:16:04.114Z,21.15
2023-02-22T02:18:32.566Z,15.52
2023-02-22T02:21:38.422Z,14.82
2023-02-22T02:24:09.136Z,16.57
2023-02-22T02:26:51.085Z,16.38
2023-02-22T02:30:03.349Z,22.65
2023-02-22T02:32:39.467Z,16.67
2023-02-22T02:35:24.868Z,16.63
2023-02-22T02:37:54.334Z,18.30
2023-02-22T02:40:32.375Z,18.50
2023-02-22T02:43:01.769Z,15.70
2023-02-22T02:45:53.914Z,19.75
2023-02-22T02:48:26.791Z,20.83
2023-02-22T02:50:56.541Z,16.37
2023-02-22T02:53:29.851Z,18.38
2023-02-22T02:55:59.384Z,20.92
2023-02-22T02:58:26.604Z,17.60
2023-02-22T03:00:56.947Z,18.45
2023-02-22T03:03:37.948Z,18.25
2023-02-22T03:06:04.540Z,17.15
2023-02-22T03:08:38.389Z,19.45
2023-02-22T03:11:16.894Z,17.58
2023-02-22T03:13:46.604Z,19.17
2023-02-22T03:16:35.120Z,19.60
2023-02-22T03:19:15.617Z,17.70
2023-02-22T03:21:50.408Z,19.88
2023-02-22T03:24:20.888Z,18.50
2023-02-22T03:26:53.955Z,20.65
2023-02-22T03:29:23.843Z,18.87
2023-02-22T03:32:01.866Z,19.38
2023-02-22T03:34:42.512Z,18.02
2023-02-22T03:37:18.164Z,14.13
2023-02-22T03:39:46.754Z,14.77
2023-02-22T03:42:20.999Z,20.25
2023-02-22T03:44:49.889Z,18.13
2023-02-22T03:47:21.715Z,16.25
2023-02-22T03:49:57.474Z,17.23
2023-02-22T03:52:24.529Z,15.70
2023-02-22T03:54:53.739Z,17.20
2023-02-22T03:57:42.117Z,15.30
2023-02-22T04:00:10.945Z,13.63
2023-02-22T04:02:37.680Z,16.13
2023-02-22T04:05:04.525Z,17.98
2023-02-22T04:07:31.158Z,19.97
2023-02-22T04:09:57.760Z,15.23
2023-02-22T04:12:24.313Z,16.45
2023-02-22T04:14:51.017Z,16.65
2023-02-22T04:17:17.618Z,21.00
2023-02-22T04:19:45.694Z,16.10
2023-02-22T04:22:12.355Z,17.05
2023-02-22T04:24:38.932Z,13.60
2023-02-22T04:27:05.567Z,19.63
2023-02-22T04:29:32.137Z,13.68
2023-02-22T04:31:58.702Z,18.07
2023-02-22T04:34:25.374Z,18.17
2023-02-22T04:36:52.380Z,16.50
2023-02-22T04:39:19.173Z,18.80
2023-02-22T04:41:47.505Z,16.15
2023-02-22T04:44:14.448Z,12.83
2023-02-22T04:46:41.162Z,14.68
2023-02-22T04:49:07.850Z,13.90
2023-02-22T04:51:35.909Z,17.70
2023-02-22T04:54:02.664Z,19.45
2023-02-22T04:56:29.253Z,14.23
2023-02-22T04:58:55.846Z,14.13
2023-02-22T05:01:23.461Z,16.25
2023-02-22T05:03:50.665Z,16.50
2023-02-22T05:06:18.390Z,16.90
2023-02-22T05:08:45.035Z,18.33
2023-02-22T05:11:11.732Z,18.05
2023-02-22T05:13:38.447Z,14.48
2023-02-22T05:16:05.575Z,18.02
2023-02-22T05:18:32.236Z,22.88
2023-02-22T05:20:58.905Z,17.85
2023-02-22T05:23:25.797Z,13.00
2023-02-22T05:25:52.511Z,15.05
2023-02-22T05:28:19.252Z,16.10
2023-02-22T05:30:46.253Z,14.13
2023-02-22T05:33:13.132Z,12.93
2023-02-22T05:35:40.225Z,18.27
2023-02-22T05:38:07.490Z,17.83
2023-02-22T05:40:34.275Z,19.65
2023-02-22T05:43:02.159Z,14.48
2023-02-22T05:45:29.766Z,14.20
2023-02-22T05:47:56.466Z,15.15
2023-02-22T05:50:23.126Z,19.05
2023-02-22T05:52:50.583Z,15.18
2023-02-22T05:55:19.469Z,20.55
2023-02-22T05:57:46.757Z,17.87
2023-02-22T06:00:23.128Z,17.20
2023-02-22T06:03:02.204Z,20.38
2023-02-22T06:05:29.583Z,20.00
2023-02-22T06:07:57.319Z,14.23
2023-02-22T06:10:24.711Z,17.70
2023-02-22T06:12:52.395Z,17.38
2023-02-22T06:15:21.492Z,19.40
2023-02-22T06:17:48.715Z,15.90
2023-02-22T06:20:20.009Z,17.05
2023-02-22T06:22:51.340Z,15.93
2023-02-22T06:25:21.191Z,15.70
2023-02-22T06:27:47.963Z,22.67
2023-02-22T06:30:16.114Z,18.92
2023-02-22T06:32:42.792Z,18.83
2023-02-22T06:35:10.161Z,22.67
2023-02-22T06:37:36.716Z,20.95
2023-02-22T06:40:05.693Z,19.77
2023-02-22T06:42:32.740Z,18.48
2023-02-22T06:44:59.439Z,14.27
2023-02-22T06:47:26.164Z,14.50
2023-02-22T06:49:56.807Z,21.77
2023-02-22T06:52:23.882Z,20.13
2023-02-22T06:54:51.100Z,16.02
2023-02-22T06:57:18.578Z,16.85
2023-02-22T06:59:45.297Z,18.93
2023-02-22T07:02:13.062Z,15.05
2023-02-22T07:04:43.175Z,18.83
2023-02-22T07:07:10.200Z,17.65
2023-02-22T07:09:36.782Z,14.10
2023-02-22T07:12:03.528Z,12.43
2023-02-22T07:14:30.131Z,13.10
2023-02-22T07:16:56.706Z,19.98
2023-02-22T07:19:24.631Z,20.40
2023-02-22T07:21:55.319Z,16.08
2023-02-22T07:24:22.223Z,22.50
2023-02-22T07:26:48.814Z,19.73
2023-02-22T07:29:15.383Z,19.48
2023-02-22T07:31:42.040Z,23.55
2023-02-22T07:34:08.644Z,20.60
2023-02-22T07:36:35.212Z,23.50
2023-02-22T07:39:01.788Z,17.75
2023-02-22T07:41:28.445Z,20.77
2023-02-22T07:43:55.104Z,18.40
2023-02-22T07:46:21.770Z,23.63
2023-02-22T07:48:48.315Z,18.00
2023-02-22T07:51:17.024Z,17.83
2023-02-22T07:53:43.758Z,20.88
2023-02-22T07:56:10.364Z,16.27
2023-02-22T07:58:37.364Z,18.85
2023-02-22T08:01:04.558Z,16.38
2023-02-22T08:03:37.765Z,15.43
2023-02-22T08:06:06.533Z,12.60
2023-02-22T08:08:34.413Z,16.35
2023-02-22T08:11:01.568Z,13.60
2023-02-22T08:13:28.260Z,17.92
2023-02-22T08:15:55.038Z,18.85
2023-02-22T08:18:22.770Z,19.25
2023-02-22T08:20:51.898Z,19.48
2023-02-22T08:23:20.204Z,21.33
2023-02-22T08:25:46.927Z,23.03
2023-02-22T08:28:16.408Z,21.48
2023-02-22T08:30:43.745Z,19.13
2023-02-22T08:33:14.369Z,19.08
2023-02-22T08:35:41.573Z,19.00
2023-02-22T08:38:15.108Z,25.90
2023-02-22T08:40:41.690Z,20.58
2023-02-22T08:43:08.243Z,24.13
2023-02-22T08:45:34.928Z,19.67
2023-02-22T08:48:02.219Z,20.38
2023-02-22T08:50:33.547Z,19.17
2023-02-22T08:53:02.324Z,20.88
2023-02-22T08:55:32.272Z,23.42
2023-02-22T08:58:01.350Z,18.08
2023-02-22T09:00:30.675Z,20.23
2023-02-22T09:02:57.308Z,19.42
2023-02-22T09:05:23.931Z,22.38
2023-02-22T09:07:50.527Z,16.73
2023-02-22T09:10:20.345Z,23.50
2023-02-22T09:12:46.964Z,21.52
2023-02-22T09:15:14.676Z,20.45
2023-02-22T09:17:41.417Z,18.65
2023-02-22T09:20:08.898Z,19.15
2023-02-22T09:22:35.612Z,18.65
2023-02-22T09:25:11.373Z,18.70
2023-02-22T09:27:44.012Z,23.70
2023-02-22T09:30:23.887Z,18.27
2023-02-22T09:33:26.041Z,21.00
2023-02-22T09:35:52.700Z,15.48
2023-02-22T09:38:29.954Z,18.88
2023-02-22T09:41:13.898Z,20.60
2023-02-22T09:43:50.491Z,23.17
2023-02-22T09:46:27.148Z,22.42
2023-02-22T09:49:02.905Z,17.77
2023-02-22T09:51:58.733Z,25.98
2023-02-22T09:54:52.741Z,22.85
2023-02-22T09:57:26.900Z,19.40
2023-02-22T10:00:13.550Z,22.27
2023-02-22T10:02:49.256Z,17.85
2023-02-22T10:05:31.033Z,21.25
2023-02-22T10:08:05.878Z,19.38
2023-02-22T10:10:39.334Z,17.75
2023-02-22T10:13:25.080Z,17.92
2023-02-22T10:16:28.969Z,14.75
2023-02-22T10:19:27.828Z,20.58
2023-02-22T10:21:54.369Z,16.48
2023-02-22T10:24:29.304Z,14.38
2023-02-22T10:26:59.018Z,17.80
2023-02-22T10:29:44.831Z,23.85
2023-02-22T10:32:25.489Z,19.25
2023-02-22T10:34:54.701Z,14.15
2023-02-22T10:37:33.996Z,19.38
2023-02-22T10:40:20.386Z,19.33
2023-02-22T10:42:47.465Z,20.20
2023-02-22T10:45:35.892Z,21.13
2023-02-22T10:48:09.268Z,20.33
2023-02-22T10:50:40.730Z,21.75
2023-02-22T10:53:09.180Z,16.88
2023-02-22T10:55:37.638Z,17.13
2023-02-22T10:58:08.062Z,22.08
2023-02-22T11:00:39.627Z,15.35
2023-02-22T11:03:22.360Z,17.10
2023-02-22T11:05:49.886Z,20.17
2023-02-22T11:08:24.617Z,13.45
2023-02-22T11:10:57.435Z,18.25
2023-02-22T11:13:38.810Z,18.23
2023-02-22T11:16:21.010Z,15.43
2023-02-22T11:18:48.734Z,17.15
2023-02-22T11:21:22.712Z,14.63
2023-02-22T11:23:50.405Z,12.57
2023-02-22T11:26:20.411Z,18.25
2023-02-22T11:28:56.126Z,15.70
2023-02-22T11:31:27.284Z,18.48
2023-02-22T11:33:59.305Z,13.35
2023-02-22T11:36:43.064Z,18.98
2023-02-22T11:39:24.347Z,15.50
2023-02-22T11:41:51.134Z,14.77
2023-02-22T11:44:31.989Z,19.70
2023-02-22T11:47:06.753Z,15.68
2023-02-22T11:49:39.155Z,14.68
2023-02-22T11:52:35.387Z,15.13
2023-02-22T11:55:32.758Z,13.30
2023-02-22T11:58:23.930Z,10.48
2023-02-22T12:01:07.096Z,15.52
2023-02-22T12:04:03.674Z,11.25
2023-02-22T12:06:48.681Z,14.32
2023-02-22T12:09:23.263Z,13.48
2023-02-22T12:11:57.318Z,15.38
2023-02-22T12:14:58.629Z,16.05
2023-02-22T12:17:43.606Z,15.32
2023-02-22T12:20:23.210Z,10.98
2023-02-22T12:23:23.591Z,14.32
2023-02-22T12:25:58.901Z,11.40
2023-02-22T12:28:37.539Z,12.80
2023-02-22T12:31:18.314Z,14.45
2023-02-22T12:33:51.858Z,14.40
2023-02-22T12:36:24.917Z,13.73
2023-02-22T12:38:59.659Z,11.27
2023-02-22T12:41:52.839Z,11.48
2023-02-22T12:44:29.319Z,15.77
2023-02-22T12:46:58.337Z,14.05
2023-02-22T12:49:52.022Z,12.18
2023-02-22T12:52:25.861Z,12.77
2023-02-22T12:55:04.124Z,15.35
2023-02-22T12:57:30.752Z,13.05
2023-02-22T13:00:23.125Z,14.00
2023-02-22T13:03:04.082Z,15.75
2023-02-22T13:05:36.128Z,13.25
2023-02-22T13:08:11.669Z,15.50
2023-02-22T13:11:11.353Z,14.27
2023-02-22T13:13:40.536Z,16.10
2023-02-22T13:16:31.915Z,17.65
2023-02-22T13:19:22.981Z,15.90
2023-02-22T13:22:14.084Z,15.68
2023-02-22T13:24:53.238Z,15.30
2023-02-22T13:27:26.288Z,16.67
2023-02-22T13:29:58.972Z,15.50
2023-02-22T13:33:01.107Z,17.13
2023-02-22T13:35:47.363Z,17.58
2023-02-22T13:38:47.765Z,14.55
2023-02-22T13:41:23.614Z,15.00
2023-02-22T13:44:08.682Z,11.85
2023-02-22T13:47:16.981Z,11.10
2023-02-22T13:50:02.320Z,15.18
2023-02-22T13:52:31.800Z,11.55
2023-02-22T13:55:10.814Z,12.05
2023-02-22T13:57:50.786Z,15.80
2023-02-22T14:00:26.299Z,11.98
2023-02-22T14:03:17.970Z,16.08
2023-02-22T14:05:50.744Z,10.40
2023-02-22T14:08:17.471Z,13.32
2023-02-22T14:10:46.286Z,16.70
2023-02-22T14:13:14.516Z,12.48
2023-02-22T14:16:02.376Z,16.85
2023-02-22T14:18:37.674Z,11.75
2023-02-22T14:21:15.775Z,15.02
2023-02-22T14:24:05.625Z,13.20
2023-02-22T14:26:37.093Z,14.15
2023-02-22T14:29:03.622Z,15.10
2023-02-22T14:31:57.188Z,12.43
2023-02-22T14:34:41.393Z,16.65
2023-02-22T14:37:40.174Z,13.85
2023-02-22T14:40:29.494Z,13.43
2023-02-22T14:43:09.999Z,13.48
2023-02-22T14:45:53.509Z,16.33
2023-02-22T14:48:45.380Z,12.18
2023-02-22T14:51:50.407Z,14.30
2023-02-22T14:54:39.675Z,13.10
2023-02-22T14:57:19.231Z,13.10
2023-02-22T14:59:58.881Z,10.90
2023-02-22T15:02:26.112Z,15.75
2023-02-22T15:04:54.746Z,15.70
2023-02-22T15:07:28.798Z,14.63
2023-02-22T15:10:26.640Z,12.73
2023-02-22T15:13:09.800Z,12.93
2023-02-22T15:15:49.552Z,14.30
2023-02-22T15:18:27.160Z,12.23
2023-02-22T15:20:58.121Z,13.07
2023-02-22T15:23:30.328Z,18.50
2023-02-22T15:25:58.035Z,13.40
2023-02-22T15:28:28.768Z,12.90
2023-02-22T15:31:31.253Z,17.70
2023-02-22T15:34:08.973Z,16.40
2023-02-22T15:36:35.664Z,14.68
2023-02-22T15:39:07.893Z,12.98
2023-02-22T15:41:35.261Z,21.50
2023-02-22T15:44:22.830Z,17.35
2023-02-22T15:46:50.794Z,14.38
2023-02-22T15:49:20.497Z,14.52
2023-02-22T15:52:08.387Z,14.45
2023-02-22T15:54:42.144Z,15.18
2023-02-22T15:57:09.379Z,16.63
2023-02-22T15:59:45.527Z,13.85
2023-02-22T16:02:31.437Z,14.85
2023-02-22T16:05:13.384Z,11.32
2023-02-22T16:07:47.523Z,18.45
2023-02-22T16:10:27.153Z,11.93
2023-02-22T16:13:31.628Z,13.25
2023-02-22T16:16:02.932Z,15.70
2023-02-22T16:18:38.493Z,15.00
2023-02-22T16:21:06.947Z,15.63
2023-02-22T16:23:50.687Z,11.65
2023-02-22T16:26:27.876Z,13.70
2023-02-22T16:28:54.524Z,15.45
2023-02-22T16:31:25.160Z,11.57
2023-02-22T16:33:53.976Z,12.32
2023-02-22T16:36:24.362Z,15.32
2023-02-22T16:38:51.750Z,12.93
2023-02-22T16:41:19.916Z,11.48
2023-02-22T16:43:51.198Z,13.82
2023-02-22T16:46:19.767Z,13.33
2023-02-22T16:48:46.762Z,10.93
2023-02-22T16:51:16.634Z,12.70
2023-02-22T16:53:44.580Z,11.30
2023-02-22T16:56:16.123Z,11.73
2023-02-22T16:58:44.164Z,13.20
2023-02-22T17:01:12.624Z,11.38
2023-02-22T17:03:39.639Z,10.75
2023-02-22T17:06:06.525Z,14.95
2023-02-22T17:08:33.107Z,12.75
2023-02-22T17:11:00.680Z,16.63
2023-02-22T17:13:29.194Z,12.27
2023-02-22T17:15:56.901Z,9.32
2023-02-22T17:18:28.302Z,10.35
2023-02-22T17:20:55.184Z,12.00
2023-02-22T17:23:23.107Z,14.82
2023-02-22T17:26:02.257Z,10.25
2023-02-22T17:28:30.449Z,10.18
2023-02-22T17:31:02.451Z,10.85
2023-02-22T17:33:32.832Z,11.63
2023-02-22T17:36:02.055Z,11.98
2023-02-22T17:38:30.239Z,14.95
2023-02-22T17:40:59.018Z,11.85
2023-02-22T17:43:27.804Z,13.27
2023-02-22T17:45:55.059Z,16.60
2023-02-22T17:48:24.023Z,15.10
2023-02-22T17:50:51.863Z,12.65
2023-02-22T17:53:21.737Z,12.90
2023-02-22T17:55:48.826Z,12.45
2023-02-22T17:58:15.700Z,11.63
2023-02-22T18:00:48.464Z,10.82
2023-02-22T18:03:21.501Z,10.45
2023-02-22T18:05:49.770Z,13.77
2023-02-22T18:08:16.396Z,17.40
2023-02-22T18:10:43.865Z,19.95
2023-02-22T18:13:16.601Z,19.37
2023-02-22T18:15:43.607Z,28.77
2023-02-22T18:18:10.304Z,29.98
2023-02-22T18:20:39.952Z,25.27
2023-02-22T18:23:08.136Z,18.67
2023-02-22T18:25:36.645Z,18.23
2023-02-22T18:28:06.063Z,14.07
2023-02-22T18:30:35.726Z,16.33
2023-02-22T18:33:03.619Z,11.43
2023-02-22T18:35:31.142Z,16.02
2023-02-22T18:37:57.829Z,11.75
2023-02-22T18:40:24.388Z,13.13
2023-02-22T18:42:50.957Z,12.88
2023-02-22T18:45:18.059Z,12.77
2023-02-22T18:47:45.544Z,12.57
2023-02-22T18:50:13.316Z,13.00
2023-02-22T18:52:46.310Z,11.32
2023-02-22T18:55:14.272Z,13.93
2023-02-22T18:57:41.333Z,13.77
2023-02-22T19:00:10.325Z,10.55
2023-02-22T19:02:37.105Z,12.27
2023-02-22T19:05:06.106Z,11.75
2023-02-22T19:07:32.803Z,15.98
2023-02-22T19:09:59.630Z,11.80
2023-02-22T19:12:27.006Z,12.43
2023-02-22T19:14:53.608Z,12.45
2023-02-22T19:17:21.490Z,10.27
2023-02-22T19:19:48.571Z,13.40
2023-02-22T19:22:15.348Z,14.63
2023-02-22T19:24:43.495Z,12.57
2023-02-22T19:27:11.198Z,12.65
2023-02-22T19:29:38.925Z,15.52
2023-02-22T19:32:07.156Z,14.30
2023-02-22T19:34:34.003Z,12.65
2023-02-22T19:37:00.974Z,17.23
2023-02-22T19:39:29.234Z,14.60
2023-02-22T19:41:57.008Z,12.50
2023-02-22T19:44:24.432Z,13.60
2023-02-22T19:46:51.633Z,15.70
2023-02-22T19:49:18.232Z,11.45
2023-02-22T19:51:44.885Z,11.27
2023-02-22T19:54:19.421Z,14.18
2023-02-22T19:56:50.755Z,11.30
2023-02-22T19:59:22.608Z,16.27
2023-02-22T20:01:52.530Z,13.85
2023-02-22T20:04:21.409Z,12.43
2023-02-22T20:06:59.369Z,13.05
2023-02-22T20:09:33.329Z,13.73
2023-02-22T20:11:59.996Z,14.38
2023-02-22T20:14:28.428Z,12.18
2023-02-22T20:16:56.697Z,16.35
2023-02-22T20:19:24.328Z,12.85
2023-02-22T20:21:52.314Z,18.00
2023-02-22T20:24:19.150Z,14.77
2023-02-22T20:26:46.888Z,17.77
2023-02-22T20:29:14.266Z,14.90
2023-02-22T20:31:42.173Z,22.65
2023-02-22T20:34:10.106Z,15.77
2023-02-22T20:36:41.422Z,11.02
2023-02-22T20:39:13.373Z,14.30
2023-02-22T20:41:46.110Z,18.00
2023-02-22T20:44:15.265Z,20.33
2023-02-22T20:46:42.867Z,18.80
2023-02-22T20:49:12.485Z,16.98
2023-02-22T20:51:40.415Z,14.05
2023-02-22T20:54:08.497Z,17.47
2023-02-22T20:56:35.246Z,14.60
2023-02-22T20:59:03.638Z,20.95
2023-02-22T21:01:31.521Z,17.58
2023-02-22T21:04:02.489Z,20.73
2023-02-22T21:06:30.850Z,16.20
2023-02-22T21:08:59.794Z,13.05
2023-02-22T21:11:30.370Z,18.05
2023-02-22T21:13:57.680Z,18.67
2023-02-22T21:16:26.962Z,19.60
2023-02-22T21:18:58.564Z,16.53
2023-02-22T21:21:26.616Z,16.38
2023-02-22T21:23:55.197Z,17.73
2023-02-22T21:26:24.525Z,18.45
2023-02-22T21:28:52.292Z,17.05
2023-02-22T21:31:21.596Z,18.83
2023-02-22T21:33:53.880Z,20.92
2023-02-22T21:36:25.029Z,16.38
2023-02-22T21:38:57.527Z,15.10
2023-02-22T21:41:27.693Z,14.07
2023-02-22T21:43:56.024Z,17.03
2023-02-22T21:46:24.117Z,19.75
2023-02-22T21:48:50.948Z,20.13
2023-02-22T21:51:31.460Z,19.85
2023-02-22T21:54:04.272Z,17.15
2023-02-22T21:56:35.642Z,21.90
2023-02-22T21:59:11.553Z,19.27
2023-02-22T22:01:47.521Z,23.10
2023-02-22T22:04:18.847Z,19.40
2023-02-22T22:06:53.561Z,18.00
2023-02-22T22:09:23.316Z,22.30
2023-02-22T22:11:58.328Z,21.60
2023-02-22T22:14:26.100Z,22.73
2023-02-22T22:16:58.073Z,21.08
2023-02-22T22:19:25.898Z,22.75
2023-02-22T22:21:53.304Z,19.23
2023-02-22T22:24:21.337Z,22.38
2023-02-22T22:26:51.042Z,23.05
2023-02-22T22:29:18.611Z,20.10
2023-02-22T22:31:45.870Z,20.27
2023-02-22T22:34:12.730Z,19.77
2023-02-22T22:36:39.373Z,25.42
2023-02-22T22:39:14.701Z,22.00
2023-02-22T22:41:42.547Z,21.05
2023-02-22T22:44:09.852Z,19.58
2023-02-22T22:46:41.190Z,23.23
2023-02-22T22:49:10.143Z,28.63
2023-02-22T22:51:37.598Z,26.75
2023-02-22T22:54:05.778Z,24.40
2023-02-22T22:56:35.182Z,20.25
2023-02-22T22:59:07.364Z,19.97
2023-02-22T23:01:39.242Z,23.80
2023-02-22T23:04:16.141Z,25.17
2023-02-22T23:06:45.895Z,20.98
2023-02-22T23:09:27.230Z,22.55
2023-02-22T23:11:56.195Z,24.90
2023-02-22T23:14:25.132Z,25.70
2023-02-22T23:16:56.434Z,24.15
2023-02-22T23:19:23.042Z,25.83
2023-02-22T23:21:50.380Z,26.92
2023-02-22T23:24:19.309Z,24.50
2023-02-22T23:26:49.080Z,23.30
2023-02-22T23:29:21.313Z,25.73
2023-02-22T23:31:49.363Z,27.30
2023-02-22T23:34:18.168Z,27.20
2023-02-22T23:36:44.817Z,25.25
2023-02-22T23:39:14.113Z,25.17
2023-02-22T23:41:42.404Z,23.70
2023-02-22T23:44:17.234Z,23.60
2023-02-22T23:46:47.908Z,25.42
2023-02-22T23:49:19.984Z,24.67
2023-02-22T23:51:47.579Z,26.20
2023-02-22T23:54:19.111Z,27.10
2023-02-22T23:56:53.579Z,25.00
2023-02-22T23:59:20.198Z,27.92
